createdAt,value
2023-06-10T00:02:25.674Z,26.70
2023-06-10T00:05:32.995Z,26.70
2023-06-10T00:08:41.415Z,26.70
2023-06-10T00:11:48.184Z,26.70
2023-06-10T00:14:55.270Z,26.70
2023-06-10T00:18:02.826Z,26.70
2023-06-10T00:21:13.185Z,26.70
2023-06-10T00:24:18.724Z,26.70
2023-06-10T00:27:25.132Z,26.60
2023-06-10T00:30:35.999Z,26.70
2023-06-10T00:33:41.893Z,26.70
2023-06-10T00:36:49.262Z,26.70
2023-06-10T00:39:56.748Z,26.70
2023-06-10T00:43:02.639Z,26.70
2023-06-10T00:46:09.014Z,26.70
2023-06-10T00:49:18.536Z,26.80
2023-06-10T00:52:24.608Z,26.80
2023-06-10T00:55:33.013Z,26.70
2023-06-10T00:58:43.929Z,26.70
2023-06-10T01:01:50.416Z,26.70
2023-06-10T01:04:58.608Z,26.70
2023-06-10T01:08:06.104Z,26.80
2023-06-10T01:11:12.086Z,26.70
2023-06-10T01:14:19.921Z,26.70
2023-06-10T01:17:25.839Z,26.70
2023-06-10T01:20:35.622Z,26.70
2023-06-10T01:23:41.791Z,26.70
2023-06-10T01:26:48.238Z,26.70
2023-06-10T01:29:56.740Z,26.70
2023-06-10T01:33:04.527Z,26.70
2023-06-10T01:36:10.748Z,26.80
2023-06-10T01:39:16.791Z,26.70
2023-06-10T01:42:22.666Z,26.70
2023-06-10T01:45:29.461Z,26.70
2023-06-10T01:48:35.766Z,26.70
2023-06-10T01:51:44.447Z,26.70
2023-06-10T01:54:53.272Z,26.60
2023-06-10T01:58:01.770Z,26.60
2023-06-10T02:01:08.948Z,26.70
2023-06-10T02:04:15.252Z,26.70
2023-06-10T02:07:21.495Z,26.70
2023-06-10T02:10:27.867Z,26.60
2023-06-10T02:13:33.609Z,26.60
2023-06-10T02:16:41.274Z,26.60
2023-06-10T02:19:48.732Z,26.70
2023-06-10T02:22:58.659Z,26.70
2023-06-10T02:26:04.686Z,26.70
2023-06-10T02:29:10.388Z,26.60
2023-06-10T02:32:17.847Z,26.60
2023-06-10T02:35:25.052Z,26.60
2023-06-10T02:38:31.387Z,26.70
2023-06-10T02:41:38.487Z,26.60
2023-06-10T02:44:44.840Z,26.60
2023-06-10T02:47:52.530Z,26.60
2023-06-10T02:50:58.672Z,26.60
2023-06-10T02:54:04.444Z,26.60
2023-06-10T02:57:15.954Z,26.50
2023-06-10T03:00:23.271Z,26.60
2023-06-10T03:03:32.822Z,26.60
2023-06-10T03:06:40.123Z,26.70
2023-06-10T03:09:50.526Z,26.70
2023-06-10T03:12:56.468Z,26.60
2023-06-10T03:16:02.424Z,26.60
2023-06-10T03:19:08.393Z,26.60
2023-06-10T03:22:14.448Z,26.60
2023-06-10T03:25:22.708Z,26.60
2023-06-10T03:28:28.831Z,26.60
2023-06-10T03:31:34.399Z,26.60
2023-06-10T03:34:40.406Z,26.70
2023-06-10T03:37:48.489Z,26.60
2023-06-10T03:40:55.655Z,26.60
2023-06-10T03:44:02.238Z,26.60
2023-06-10T03:47:14.449Z,26.60
2023-06-10T03:50:20.880Z,26.60
2023-06-10T03:53:28.991Z,26.60
2023-06-10T03:56:35.642Z,26.60
2023-06-10T03:59:41.647Z,26.60
2023-06-10T04:02:52.852Z,26.60
2023-06-10T04:06:00.877Z,26.70
2023-06-10T04:09:08.931Z,26.60
2023-06-10T04:12:16.020Z,26.60
2023-06-10T04:15:23.746Z,26.60
2023-06-10T04:18:32.394Z,26.60
2023-06-10T04:21:39.385Z,26.70
2023-06-10T04:24:49.150Z,26.60
2023-06-10T04:27:55.981Z,26.60
2023-06-10T04:31:02.273Z,26.60
2023-06-10T04:34:09.353Z,26.60
2023-06-10T04:37:16.725Z,26.50
2023-06-10T04:40:23.220Z,26.50
2023-06-10T04:43:29.894Z,26.50
2023-06-10T04:46:36.609Z,26.50
2023-06-10T04:49:44.235Z,26.60
2023-06-10T04:52:51.145Z,26.60
2023-06-10T04:55:56.812Z,26.60
2023-06-10T04:59:03.821Z,26.50
2023-06-10T05:02:12.708Z,26.50
2023-06-10T05:05:20.805Z,26.60
2023-06-10T05:08:29.392Z,26.60
2023-06-10T05:11:35.255Z,26.50
2023-06-10T05:14:41.484Z,26.50
2023-06-10T05:21:01.813Z,26.60
2023-06-10T05:24:08.208Z,26.50
2023-06-10T05:27:15.825Z,26.40
2023-06-10T05:30:26.593Z,26.50
2023-06-10T05:33:32.506Z,26.50
2023-06-10T05:36:40.435Z,26.50
2023-06-10T05:39:47.152Z,26.40
2023-06-10T05:42:54.740Z,26.40
2023-06-10T05:46:00.604Z,26.50
2023-06-10T05:49:06.445Z,26.50
2023-06-10T05:52:14.214Z,26.40
2023-06-10T05:55:22.359Z,26.40
2023-06-10T05:58:30.521Z,26.40
2023-06-10T06:01:38.272Z,26.40
2023-06-10T06:04:45.813Z,26.50
2023-06-10T06:07:53.657Z,26.50
2023-06-10T06:11:02.780Z,26.30
2023-06-10T06:14:10.562Z,26.40
2023-06-10T06:17:19.140Z,26.40
2023-06-10T06:20:25.390Z,26.50
2023-06-10T06:23:32.118Z,26.40
2023-06-10T06:26:38.114Z,26.40
2023-06-10T06:29:43.725Z,26.40
2023-06-10T06:32:50.771Z,26.40
2023-06-10T06:36:03.565Z,26.50
2023-06-10T06:39:11.247Z,26.40
2023-06-10T06:42:18.684Z,26.40
2023-06-10T06:45:24.854Z,26.40
2023-06-10T06:48:33.892Z,26.40
2023-06-10T06:51:40.456Z,26.40
2023-06-10T06:54:46.222Z,26.30
2023-06-10T06:57:56.157Z,26.30
2023-06-10T07:01:02.001Z,26.40
2023-06-10T07:04:11.534Z,26.40
2023-06-10T07:07:17.150Z,26.40
2023-06-10T07:10:23.572Z,26.30
2023-06-10T07:13:29.402Z,26.40
2023-06-10T07:16:37.618Z,26.40
2023-06-10T07:19:45.182Z,26.40
2023-06-10T07:22:51.120Z,26.40
2023-06-10T07:25:57.851Z,26.40
2023-06-10T07:29:06.959Z,26.40
2023-06-10T07:32:13.816Z,26.40
2023-06-10T07:35:20.432Z,26.40
2023-06-10T07:38:26.521Z,26.30
2023-06-10T07:41:32.197Z,26.30
2023-06-10T07:44:39.409Z,26.30
2023-06-10T07:47:45.849Z,26.30
2023-06-10T07:50:54.416Z,26.30
2023-06-10T07:54:02.172Z,26.40
2023-06-10T07:57:10.643Z,26.30
2023-06-10T08:00:18.884Z,26.30
2023-06-10T08:03:26.612Z,26.30
2023-06-10T08:06:34.126Z,26.30
2023-06-10T08:09:40.280Z,26.20
2023-06-10T08:12:47.480Z,26.20
2023-06-10T08:15:54.792Z,26.20
2023-06-10T08:19:01.620Z,26.20
2023-06-10T08:22:08.696Z,26.20
2023-06-10T08:25:15.152Z,26.20
2023-06-10T08:28:22.176Z,26.20
2023-06-10T08:31:28.187Z,26.20
2023-06-10T08:34:38.085Z,26.20
2023-06-10T08:37:46.239Z,26.20
2023-06-10T08:40:52.168Z,26.10
2023-06-10T08:43:59.498Z,26.10
2023-06-10T08:47:11.692Z,26.10
2023-06-10T08:50:19.302Z,26.20
2023-06-10T08:53:26.768Z,26.20
2023-06-10T08:56:36.429Z,26.10
2023-06-10T08:59:45.062Z,26.10
2023-06-10T09:02:54.606Z,26.10
2023-06-10T09:06:03.957Z,26.20
2023-06-10T09:09:10.791Z,26.10
2023-06-10T09:12:18.471Z,26.10
2023-06-10T09:15:26.483Z,26.10
2023-06-10T09:18:32.788Z,26.10
2023-06-10T09:21:38.512Z,26.10
2023-06-10T09:24:46.838Z,26.10
2023-06-10T09:27:58.333Z,26.10
2023-06-10T09:31:10.617Z,26.10
2023-06-10T09:34:20.993Z,26.10
2023-06-10T09:37:28.604Z,26.10
2023-06-10T09:40:37.248Z,26.00
2023-06-10T09:43:43.722Z,26.00
2023-06-10T09:46:50.231Z,26.10
2023-06-10T09:49:56.726Z,26.10
2023-06-10T09:53:04.067Z,26.10
2023-06-10T09:56:11.751Z,26.00
2023-06-10T09:59:17.607Z,26.10
2023-06-10T10:02:26.740Z,26.10
2023-06-10T10:05:33.562Z,26.10
2023-06-10T10:08:40.061Z,26.00
2023-06-10T10:11:45.639Z,26.00
2023-06-10T10:14:53.376Z,26.00
2023-06-10T10:18:01.409Z,26.00
2023-06-10T10:21:11.245Z,26.00
2023-06-10T10:24:20.081Z,26.00
2023-06-10T10:27:27.250Z,26.00
2023-06-10T10:30:34.313Z,26.00
2023-06-10T10:33:42.204Z,26.00
2023-06-10T10:36:49.514Z,26.00
2023-06-10T10:39:57.244Z,26.00
2023-06-10T10:43:06.558Z,26.00
2023-06-10T10:46:14.831Z,26.00
2023-06-10T10:49:20.752Z,26.00
2023-06-10T10:52:27.634Z,26.00
2023-06-10T10:55:34.094Z,26.00
2023-06-10T10:58:40.664Z,26.00
2023-06-10T11:01:48.094Z,26.00
2023-06-10T11:04:54.107Z,26.00
2023-06-10T11:08:02.273Z,26.00
2023-06-10T11:11:23.750Z,26.00
2023-06-10T11:14:38.475Z,26.00
2023-06-10T11:18:02.876Z,26.00
2023-06-10T11:21:08.817Z,25.90
2023-06-10T11:24:18.423Z,25.90
2023-06-10T11:27:29.041Z,25.90
2023-06-10T11:30:36.413Z,26.00
2023-06-10T11:33:43.122Z,25.90
2023-06-10T11:36:48.840Z,25.90
2023-06-10T11:39:56.080Z,25.80
2023-06-10T11:43:02.719Z,25.80
2023-06-10T11:46:10.216Z,25.80
2023-06-10T11:49:18.800Z,25.90
2023-06-10T11:52:28.940Z,25.90
2023-06-10T11:55:53.577Z,25.90
2023-06-10T11:59:03.915Z,25.90
2023-06-10T12:02:11.868Z,26.00
2023-06-10T12:05:19.931Z,26.10
2023-06-10T12:08:28.297Z,26.10
2023-06-10T12:11:35.710Z,26.10
2023-06-10T12:15:00.232Z,26.10
2023-06-10T12:18:10.323Z,26.30
2023-06-10T12:21:27.570Z,26.30
2023-06-10T12:24:33.567Z,26.20
2023-06-10T12:27:44.300Z,26.30
2023-06-10T12:30:51.520Z,26.40
2023-06-10T12:34:11.361Z,26.40
2023-06-10T12:37:19.384Z,26.40
2023-06-10T12:40:27.701Z,26.40
2023-06-10T12:43:37.071Z,26.50
2023-06-10T12:46:43.603Z,26.60
2023-06-10T12:49:50.800Z,26.70
2023-06-10T12:52:58.047Z,26.70
2023-06-10T12:56:04.720Z,26.70
2023-06-10T12:59:11.928Z,26.70
2023-06-10T13:02:21.947Z,26.70
2023-06-10T13:05:28.074Z,26.70
2023-06-10T13:08:35.006Z,26.70
2023-06-10T13:11:42.822Z,26.70
2023-06-10T13:14:48.524Z,26.70
2023-06-10T13:17:56.664Z,26.70
2023-06-10T13:21:04.145Z,26.70
2023-06-10T13:24:10.529Z,26.80
2023-06-10T13:27:20.712Z,26.80
2023-06-10T13:30:30.257Z,26.80
2023-06-10T13:33:36.003Z,26.70
2023-06-10T13:36:42.873Z,26.80
2023-06-10T13:39:52.212Z,26.80
2023-06-10T13:42:58.458Z,26.90
2023-06-10T13:46:05.984Z,26.90
2023-06-10T13:49:11.994Z,26.80
2023-06-10T13:52:20.320Z,26.90
2023-06-10T13:55:30.056Z,26.90
2023-06-10T13:58:39.088Z,26.90
2023-06-10T14:01:47.772Z,26.90
2023-06-10T14:04:55.123Z,26.90
2023-06-10T14:08:03.366Z,27.00
2023-06-10T14:11:09.150Z,27.00
2023-06-10T14:14:16.535Z,27.00
2023-06-10T14:17:23.535Z,27.00
2023-06-10T14:20:31.380Z,27.00
2023-06-10T14:23:40.134Z,27.10
2023-06-10T14:26:47.780Z,27.10
2023-06-10T14:29:55.854Z,27.10
2023-06-10T14:33:03.985Z,27.10
2023-06-10T14:36:12.661Z,27.10
2023-06-10T14:39:19.309Z,27.20
2023-06-10T14:42:28.796Z,27.30
2023-06-10T14:45:36.418Z,27.20
2023-06-10T14:48:43.661Z,27.20
2023-06-10T14:51:51.485Z,27.30
2023-06-10T14:55:00.739Z,27.30
2023-06-10T14:58:10.254Z,27.40
2023-06-10T15:01:16.054Z,27.30
2023-06-10T15:04:24.460Z,27.30
2023-06-10T15:07:30.090Z,27.40
2023-06-10T15:10:37.728Z,27.40
2023-06-10T15:13:46.857Z,27.40
2023-06-10T15:16:54.881Z,27.40
2023-06-10T15:20:00.720Z,27.30
2023-06-10T15:23:08.707Z,27.50
2023-06-10T15:26:18.428Z,27.50
2023-06-10T15:29:26.087Z,27.50
2023-06-10T15:32:31.857Z,27.40
2023-06-10T15:35:37.929Z,27.40
2023-06-10T15:38:43.697Z,27.50
2023-06-10T15:41:55.364Z,27.60
2023-06-10T15:45:08.115Z,27.50
2023-06-10T15:48:17.520Z,27.50
2023-06-10T15:51:26.887Z,27.50
2023-06-10T15:54:36.889Z,27.60
2023-06-10T15:57:47.936Z,27.60
2023-06-10T16:00:55.181Z,27.60
2023-06-10T16:04:03.574Z,27.50
2023-06-10T16:07:11.380Z,27.60
2023-06-10T16:10:19.157Z,27.60
2023-06-10T16:13:28.574Z,27.60
2023-06-10T16:16:34.198Z,27.60
2023-06-10T16:19:40.565Z,27.60
2023-06-10T16:22:50.731Z,27.60
2023-06-10T16:25:59.416Z,27.70
2023-06-10T16:29:12.139Z,27.60
2023-06-10T16:32:24.349Z,27.60
2023-06-10T16:35:34.630Z,27.60
2023-06-10T16:38:44.600Z,27.70
2023-06-10T16:41:55.654Z,27.70
2023-06-10T16:45:06.776Z,27.70
2023-06-10T16:48:15.770Z,27.60
2023-06-10T16:51:24.222Z,27.70
2023-06-10T16:54:33.871Z,27.80
2023-06-10T16:57:39.927Z,27.70
2023-06-10T17:00:47.581Z,27.70
2023-06-10T17:03:56.073Z,27.70
2023-06-10T17:07:05.452Z,27.70
2023-06-10T17:10:15.092Z,27.80
2023-06-10T17:13:23.534Z,27.80
2023-06-10T17:16:32.138Z,27.70
2023-06-10T17:19:39.589Z,27.70
2023-06-10T17:22:49.708Z,27.80
2023-06-10T17:26:01.019Z,27.90
2023-06-10T17:29:09.286Z,27.80
2023-06-10T17:32:20.556Z,27.80
2023-06-10T17:35:28.615Z,27.80
2023-06-10T17:38:38.331Z,27.90
2023-06-10T17:41:49.171Z,27.90
2023-06-10T17:44:57.472Z,27.80
2023-06-10T17:48:04.710Z,27.80
2023-06-10T17:51:13.814Z,27.80
2023-06-10T17:54:26.408Z,27.90
2023-06-10T17:57:35.451Z,27.90
2023-06-10T18:00:44.733Z,27.80
2023-06-10T18:03:56.057Z,27.80
2023-06-10T18:07:04.902Z,27.80
2023-06-10T18:10:17.657Z,27.90
2023-06-10T18:13:27.141Z,27.80
2023-06-10T18:16:38.165Z,27.80
2023-06-10T18:19:46.278Z,27.70
2023-06-10T18:22:58.331Z,27.80
2023-06-10T18:26:08.127Z,27.80
2023-06-10T18:29:17.975Z,27.80
2023-06-10T18:32:27.427Z,27.70
2023-06-10T18:35:36.121Z,27.80
2023-06-10T18:38:44.193Z,27.80
2023-06-10T18:41:54.453Z,27.90
2023-06-10T18:45:03.442Z,27.80
2023-06-10T18:48:13.154Z,27.80
2023-06-10T18:51:22.091Z,27.80
2023-06-10T18:54:30.447Z,27.80
2023-06-10T18:57:40.809Z,27.70
2023-06-10T19:00:51.651Z,27.80
2023-06-10T19:04:04.424Z,27.80
2023-06-10T19:07:17.231Z,27.90
2023-06-10T19:10:26.829Z,27.90
2023-06-10T19:13:35.672Z,28.00
2023-06-10T19:16:44.929Z,28.00
2023-06-10T19:19:54.909Z,28.00
2023-06-10T19:23:05.110Z,28.00
2023-06-10T19:26:12.688Z,28.00
2023-06-10T19:29:23.718Z,27.70
2023-06-10T19:32:33.290Z,27.50
2023-06-10T19:35:44.785Z,27.30
2023-06-10T19:38:53.535Z,27.20
2023-06-10T19:42:04.456Z,27.20
2023-06-10T19:45:15.454Z,27.30
2023-06-10T19:48:23.197Z,27.50
2023-06-10T19:51:31.641Z,27.60
2023-06-10T19:54:39.316Z,27.70
2023-06-10T19:57:48.284Z,27.80
2023-06-10T20:00:58.563Z,27.80
2023-06-10T20:04:07.880Z,27.70
2023-06-10T20:07:14.807Z,27.60
2023-06-10T20:10:21.644Z,27.50
2023-06-10T20:13:29.150Z,27.40
2023-06-10T20:16:37.955Z,27.20
2023-06-10T20:19:47.260Z,27.20
2023-06-10T20:22:58.337Z,27.00
2023-06-10T20:26:07.777Z,26.90
2023-06-10T20:29:17.383Z,27.00
2023-06-10T20:32:26.990Z,27.20
2023-06-10T20:35:35.488Z,27.30
2023-06-10T20:38:43.480Z,27.30
2023-06-10T20:41:50.920Z,27.40
2023-06-10T20:44:59.918Z,27.50
2023-06-10T20:48:09.424Z,27.50
2023-06-10T20:51:18.516Z,27.50
2023-06-10T20:54:29.319Z,27.50
2023-06-10T20:57:38.771Z,27.40
2023-06-10T21:00:47.963Z,27.30
2023-06-10T21:03:57.686Z,27.10
2023-06-10T21:07:07.482Z,27.00
2023-06-10T21:10:15.228Z,26.90
2023-06-10T21:13:22.987Z,26.90
2023-06-10T21:16:32.179Z,26.90
2023-06-10T21:19:40.292Z,27.10
2023-06-10T21:22:48.569Z,27.20
2023-06-10T21:25:56.722Z,27.30
2023-06-10T21:29:02.699Z,27.40
2023-06-10T21:32:12.578Z,27.40
2023-06-10T21:35:21.197Z,27.40
2023-06-10T21:38:30.600Z,27.50
2023-06-10T21:41:38.276Z,27.40
2023-06-10T21:44:47.690Z,27.30
2023-06-10T21:48:00.438Z,27.10
2023-06-10T21:51:08.279Z,27.00
2023-06-10T21:54:18.296Z,26.90
2023-06-10T21:57:26.368Z,26.90
2023-06-10T22:00:35.790Z,26.90
2023-06-10T22:03:46.550Z,27.10
2023-06-10T22:06:56.425Z,27.20
2023-06-10T22:10:06.914Z,27.30
2023-06-10T22:13:14.280Z,27.40
2023-06-10T22:16:22.228Z,27.40
2023-06-10T22:19:32.512Z,27.40
2023-06-10T22:22:42.494Z,27.40
2023-06-10T22:25:50.359Z,27.30
2023-06-10T22:28:59.201Z,27.10
2023-06-10T22:32:09.837Z,26.90
2023-06-10T22:35:21.408Z,26.90
2023-06-10T22:38:30.696Z,26.90
2023-06-10T22:41:39.144Z,27.10
2023-06-10T22:44:48.738Z,27.10
2023-06-10T22:48:00.301Z,27.20
2023-06-10T22:51:07.248Z,27.20
2023-06-10T22:54:14.180Z,27.20
2023-06-10T22:57:22.229Z,27.10
2023-06-10T23:00:29.902Z,26.90
2023-06-10T23:03:40.735Z,26.80
2023-06-10T23:06:51.582Z,26.70
2023-06-10T23:10:01.108Z,26.70
2023-06-10T23:13:10.080Z,26.80
2023-06-10T23:16:20.127Z,26.90
2023-06-10T23:19:30.365Z,27.00
2023-06-10T23:22:39.260Z,27.00
2023-06-10T23:25:48.462Z,27.10
2023-06-10T23:28:59.065Z,27.20
2023-06-10T23:32:10.918Z,27.20
2023-06-10T23:35:20.362Z,27.30
2023-06-10T23:38:31.569Z,27.40
2023-06-10T23:41:40.327Z,27.50
2023-06-10T23:44:49.969Z,27.60
2023-06-10T23:47:56.874Z,27.40
2023-06-10T23:51:06.451Z,27.20
2023-06-10T23:54:16.503Z,27.10
2023-06-10T23:57:27.315Z,26.90
